Terminal Aerodrome Forecast
Issued by NWS Charleston, WV

Current Version | Previous Version | Text Only | Print | Product List | Glossary Off
Versions: 1 2 3 4 5 6 7 8 9 10 11 12 13 14 15 16 17 18 19 20 21 22 23 24 25

923
FTUS41 KRLX 241136
TAFBKW
TAF
KBKW 241136Z 2412/2512 14009KT P6SM BKN008 OVC025
     FM241400 14010KT P6SM SCT007 BKN025
     FM241700 14011KT P6SM OVC020
     FM242000 15011G17KT 4SM SHRA OVC015
     FM250000 15012G18KT 6SM -SHRA OVC020
     FM250400 22005KT 6SM SHRA OVC020=

USA.gov is the U.S. government's official web portal to all federal, state and local government web resources and services.